MSSS/SAL METAR and TAF weather

Enter ICAO airport designator
Station Type Date Time Source
MSSS METAR 2021/09/15 23:50 UTC NOAA

MSSS 152350Z 18007KT 9999 FEW013 FEW033CB 24/22 Q1013 A2994 CB TO SW


Station Type Date Time Source
MSSS Decoded METAR 2021/09/15 23:50 UTC NOAA

San Salvador / Ilopango, El Salvador (MSSS) 13-42N 089-07W 621M
Sep 15, 2021 - 07:50 PM EDT / 2021.09.15 2350 UTC
Wind: from the S (180 degrees) at 8 MPH (7 KT):0
Visibility: greater than 7 mile(s):0
Sky conditions: mostly clear
Weather: Cumulonimbus clouds observed
Temperature: 75 F (24 C)
Dew Point: 71 F (22 C)
Relative Humidity: 88%
Pressure (altimeter): 29.94 in. Hg (1013 hPa)
ob: MSSS 152350Z 18007KT 9999 FEW013 FEW033CB 24/22 Q1013 A2994 CB TO SW
cycle: 0

Station Type Date Time Source
MSSS TAF 2021/09/16 12:18 UTC NOAA

TAF MSSS 160925Z 1612/1712 02003KT 9999 FEW017 TX30/1620Z TN22/1710Z
FM161700 18010KT 9999 SCT023 FEW037CB
TEMPO 1620/1622 8000 TSRA
FM170000 35003KT
TEMPO 1703/1706 35010KT 5000 TSRA SCT017 SCT037CB BKN047
FM170600 02003KT 5000 BR SCT013

Example: see airport list